createdAt,value
2023-03-06T00:01:19.270Z,99954.17
2023-03-06T00:03:48.409Z,99956.88
2023-03-06T00:06:17.397Z,99951.19
2023-03-06T00:08:46.382Z,99951.67
2023-03-06T00:11:15.645Z,99950.30
2023-03-06T00:13:44.544Z,99950.20
2023-03-06T00:16:13.577Z,99942.27
2023-03-06T00:18:44.208Z,99937.98
2023-03-06T00:21:13.182Z,99937.00
2023-03-06T00:23:42.184Z,99934.90
2023-03-06T00:26:11.175Z,99939.14
2023-03-06T00:28:40.102Z,99940.34
2023-03-06T00:31:09.059Z,99937.90
2023-03-06T00:33:38.109Z,99934.96
2023-03-06T00:36:07.357Z,99935.52
2023-03-06T00:38:37.384Z,99929.14
2023-03-06T00:41:08.029Z,99925.14
2023-03-06T00:43:37.420Z,99922.23
2023-03-06T00:46:06.813Z,99919.50
2023-03-06T00:48:35.989Z,99917.23
2023-03-06T00:51:05.098Z,99914.84
2023-03-06T00:53:34.053Z,99910.13
2023-03-06T00:56:03.070Z,99906.99
2023-03-06T00:58:32.024Z,99904.99
2023-03-06T01:01:01.223Z,99899.08
2023-03-06T01:03:30.309Z,99900.30
2023-03-06T01:05:59.320Z,99890.66
2023-03-06T01:08:28.311Z,99891.79
2023-03-06T01:10:57.391Z,99888.38
2023-03-06T01:13:26.512Z,99888.90
2023-03-06T01:15:55.418Z,99890.68
2023-03-06T01:18:24.512Z,99883.73
2023-03-06T01:20:53.404Z,99885.89
2023-03-06T01:23:22.291Z,99880.54
2023-03-06T01:25:51.204Z,99877.13
2023-03-06T01:28:20.149Z,99869.77
2023-03-06T01:30:49.396Z,99872.52
2023-03-06T01:33:19.902Z,99871.92
2023-03-06T01:35:48.950Z,99871.58
2023-03-06T01:38:18.139Z,99870.19
2023-03-06T01:40:47.420Z,99864.05
2023-03-06T01:43:28.701Z,99863.96
2023-03-06T01:46:16.326Z,99862.61
2023-03-06T01:48:47.485Z,99859.89
2023-03-06T01:51:16.920Z,99858.77
2023-03-06T01:53:47.408Z,99858.42
2023-03-06T01:56:16.470Z,99854.86
2023-03-06T01:58:46.315Z,99852.73
2023-03-06T02:01:15.998Z,99846.40
2023-03-06T02:03:47.382Z,99840.17
2023-03-06T02:06:19.876Z,99837.45
2023-03-06T02:08:51.710Z,99834.91
2023-03-06T02:11:23.989Z,99828.79
2023-03-06T02:13:54.697Z,99825.93
2023-03-06T02:16:29.820Z,99822.81
2023-03-06T02:19:02.272Z,99821.11
2023-03-06T02:21:34.927Z,99816.77
2023-03-06T02:24:23.833Z,99816.48
2023-03-06T02:26:53.930Z,99814.92
2023-03-06T02:29:28.482Z,99808.21
2023-03-06T02:31:57.736Z,99803.45
2023-03-06T02:34:26.539Z,99795.30
2023-03-06T02:37:02.153Z,99794.95
2023-03-06T02:39:34.126Z,99793.75
2023-03-06T02:42:03.072Z,99804.45
2023-03-06T02:44:33.874Z,99804.05
2023-03-06T02:47:02.856Z,99807.44
2023-03-06T02:49:31.798Z,99805.96
2023-03-06T02:52:00.698Z,99796.98
2023-03-06T02:54:29.686Z,99785.83
2023-03-06T02:56:58.631Z,99790.71
2023-03-06T02:59:27.603Z,99794.35
2023-03-06T03:01:56.641Z,99795.88
2023-03-06T03:04:25.559Z,99797.40
2023-03-06T03:06:54.469Z,99798.52
2023-03-06T03:09:23.343Z,99797.74
2023-03-06T03:11:52.232Z,99798.69
2023-03-06T03:14:21.143Z,99789.29
2023-03-06T03:16:50.037Z,99780.38
2023-03-06T03:19:18.993Z,99779.84
2023-03-06T03:21:47.909Z,99778.08
2023-03-06T03:24:16.835Z,99777.52
2023-03-06T03:26:45.735Z,99772.59
2023-03-06T03:29:14.987Z,99770.23
2023-03-06T03:31:44.030Z,99769.36
2023-03-06T03:34:13.110Z,99765.31
2023-03-06T03:36:42.057Z,99767.80
2023-03-06T03:39:10.911Z,99764.02
2023-03-06T03:41:39.820Z,99759.15
2023-03-06T03:44:09.378Z,99760.16
2023-03-06T03:46:38.554Z,99758.66
2023-03-06T03:49:07.615Z,99757.33
2023-03-06T03:51:36.489Z,99753.38
2023-03-06T03:54:06.949Z,99753.83
2023-03-06T03:56:35.989Z,99750.37
2023-03-06T03:59:04.869Z,99748.71
2023-03-06T04:01:33.877Z,99743.76
2023-03-06T04:04:02.996Z,99741.70
2023-03-06T04:06:31.894Z,99740.64
2023-03-06T04:09:00.940Z,99734.81
2023-03-06T04:11:30.403Z,99729.74
2023-03-06T04:13:59.303Z,99732.45
2023-03-06T04:16:28.189Z,99730.13
2023-03-06T04:18:57.124Z,99727.00
2023-03-06T04:21:26.059Z,99726.36
2023-03-06T04:23:54.967Z,99722.89
2023-03-06T04:26:24.075Z,99716.21
2023-03-06T04:28:53.007Z,99720.27
2023-03-06T04:31:22.648Z,99712.11
2023-03-06T04:33:51.575Z,99711.91
2023-03-06T04:36:30.357Z,99709.39
2023-03-06T04:39:00.801Z,99706.89
2023-03-06T04:41:30.867Z,99702.69
2023-03-06T04:43:59.983Z,99701.77
2023-03-06T04:46:29.137Z,99699.42
2023-03-06T04:48:58.347Z,99696.45
2023-03-06T04:51:27.440Z,99694.18
2023-03-06T04:53:56.550Z,99687.59
2023-03-06T04:56:25.433Z,99680.92
2023-03-06T04:58:54.436Z,99681.45
2023-03-06T05:01:23.470Z,99679.52
2023-03-06T05:03:52.538Z,99675.17
2023-03-06T05:06:26.446Z,99674.77
2023-03-06T05:08:57.706Z,99669.79
2023-03-06T05:11:26.628Z,99669.93
2023-03-06T05:13:55.497Z,99667.88
2023-03-06T05:16:24.714Z,99663.10
2023-03-06T05:18:53.656Z,99661.05
2023-03-06T05:21:22.610Z,99658.98
2023-03-06T05:23:51.550Z,99650.77
2023-03-06T05:26:20.494Z,99658.64
2023-03-06T05:28:49.466Z,99657.86
2023-03-06T05:31:18.458Z,99656.58
2023-03-06T05:33:47.550Z,99652.55
2023-03-06T05:36:16.538Z,99651.53
2023-03-06T05:38:45.492Z,99648.54
2023-03-06T05:41:14.442Z,99646.23
2023-03-06T05:43:43.491Z,99650.04
2023-03-06T05:46:12.433Z,99646.22
2023-03-06T05:48:41.375Z,99643.89
2023-03-06T05:51:11.181Z,99641.41
2023-03-06T05:53:40.171Z,99640.48
2023-03-06T05:56:09.912Z,99635.84
2023-03-06T05:58:39.452Z,99635.67
2023-03-06T06:01:13.547Z,99638.61
2023-03-06T06:03:42.859Z,99633.96
2023-03-06T06:06:13.893Z,99631.98
2023-03-06T06:08:43.476Z,99633.43
2023-03-06T06:11:13.259Z,99631.21
2023-03-06T06:13:42.296Z,99627.86
2023-03-06T06:16:15.894Z,99626.84
2023-03-06T06:18:45.399Z,99625.95
2023-03-06T06:21:14.971Z,99627.33
2023-03-06T06:23:44.076Z,99626.95
2023-03-06T06:26:13.019Z,99625.85
2023-03-06T06:28:41.903Z,99623.45
2023-03-06T06:31:12.875Z,99619.64
2023-03-06T06:33:42.110Z,99615.41
2023-03-06T06:36:20.305Z,99617.71
2023-03-06T06:38:50.899Z,99618.22
2023-03-06T06:41:42.273Z,99621.13
2023-03-06T06:44:11.417Z,99623.80
2023-03-06T06:47:20.804Z,99626.59
2023-03-06T06:49:29.862Z,99624.27
2023-03-06T06:52:01.775Z,99623.66
2023-03-06T06:54:30.712Z,99618.16
2023-03-06T06:56:59.706Z,99616.19
2023-03-06T06:59:28.578Z,99611.61
2023-03-06T07:01:57.571Z,99603.31
2023-03-06T07:04:26.491Z,99602.45
2023-03-06T07:06:57.290Z,99601.69
2023-03-06T07:09:26.783Z,99598.84
2023-03-06T07:11:56.162Z,99599.04
2023-03-06T07:14:25.233Z,99594.59
2023-03-06T07:16:54.136Z,99597.02
2023-03-06T07:19:23.069Z,99590.23
2023-03-06T07:21:52.038Z,99589.00
2023-03-06T07:24:20.986Z,99590.05
2023-03-06T07:26:50.041Z,99589.96
2023-03-06T07:29:19.372Z,99597.29
2023-03-06T07:31:48.406Z,99600.35
2023-03-06T07:34:17.266Z,99602.43
2023-03-06T07:36:46.421Z,99607.95
2023-03-06T07:39:15.511Z,99607.56
2023-03-06T07:41:44.679Z,99609.24
2023-03-06T07:44:13.728Z,99610.57
2023-03-06T07:46:42.641Z,99614.17
2023-03-06T07:49:11.758Z,99614.15
2023-03-06T07:51:40.773Z,99613.71
2023-03-06T07:54:10.030Z,99610.30
2023-03-06T07:56:38.981Z,99607.23
2023-03-06T07:59:07.841Z,99612.31
2023-03-06T08:01:39.398Z,99611.41
2023-03-06T08:04:08.365Z,99610.64
2023-03-06T08:06:37.301Z,99608.23
2023-03-06T08:09:06.334Z,99612.50
2023-03-06T08:11:35.248Z,99613.37
2023-03-06T08:14:04.249Z,99609.66
2023-03-06T08:16:33.211Z,99607.95
2023-03-06T08:19:02.146Z,99608.20
2023-03-06T08:21:31.119Z,99608.52
2023-03-06T08:24:00.145Z,99607.56
2023-03-06T08:26:31.570Z,99604.23
2023-03-06T08:29:02.561Z,99602.74
2023-03-06T08:31:38.514Z,99604.80
2023-03-06T08:34:10.134Z,99605.10
2023-03-06T08:36:39.218Z,99603.67
2023-03-06T08:39:08.539Z,99606.44
2023-03-06T08:41:38.445Z,99606.38
2023-03-06T08:44:07.438Z,99607.94
2023-03-06T08:46:37.359Z,99612.17
2023-03-06T08:49:06.356Z,99613.83
2023-03-06T08:51:36.068Z,99612.21
2023-03-06T08:54:05.241Z,99613.16
2023-03-06T08:56:34.614Z,99617.80
2023-03-06T08:59:06.084Z,99618.14
2023-03-06T09:01:38.027Z,99619.39
2023-03-06T09:04:09.925Z,99620.55
2023-03-06T09:06:42.214Z,99624.08
2023-03-06T09:09:12.735Z,99623.95
2023-03-06T09:11:41.756Z,99624.48
2023-03-06T09:14:10.646Z,99624.55
2023-03-06T09:16:40.100Z,99624.49
2023-03-06T09:19:09.049Z,99623.16
2023-03-06T09:21:38.231Z,99626.30
2023-03-06T09:24:07.317Z,99639.71
2023-03-06T09:26:45.479Z,99638.80
2023-03-06T09:29:16.628Z,99643.09
2023-03-06T09:31:46.013Z,99641.34
2023-03-06T09:34:15.049Z,99640.03
2023-03-06T09:36:56.401Z,99646.11
2023-03-06T09:39:27.460Z,99636.11
2023-03-06T09:42:00.295Z,99634.02
2023-03-06T09:44:32.477Z,99635.73
2023-03-06T09:47:20.418Z,99632.07
2023-03-06T09:49:58.171Z,99631.22
2023-03-06T09:52:30.135Z,99634.85
2023-03-06T09:55:13.028Z,99634.23
2023-03-06T09:57:53.563Z,99636.21
2023-03-06T10:00:28.731Z,99633.47
2023-03-06T10:03:16.045Z,99629.30
2023-03-06T10:05:53.323Z,99632.61
2023-03-06T10:08:35.841Z,99634.61
2023-03-06T10:11:11.190Z,99631.98
2023-03-06T10:13:48.132Z,99631.98
2023-03-06T10:16:29.544Z,99634.25
2023-03-06T10:19:03.230Z,99633.52
2023-03-06T10:21:38.486Z,99633.85
2023-03-06T10:24:42.897Z,99634.91
2023-03-06T10:27:30.164Z,99632.61
2023-03-06T10:30:04.281Z,99629.36
2023-03-06T10:32:49.025Z,99625.38
2023-03-06T10:35:30.488Z,99627.24
2023-03-06T10:38:26.663Z,99631.70
2023-03-06T10:41:01.639Z,99628.23
2023-03-06T10:43:30.557Z,99626.87
2023-03-06T10:45:59.704Z,99631.93
2023-03-06T10:48:31.066Z,99631.62
2023-03-06T10:51:25.835Z,99630.77
2023-03-06T10:53:59.167Z,99632.81
2023-03-06T10:56:40.831Z,99632.52
2023-03-06T10:59:12.745Z,99632.73
2023-03-06T11:01:49.644Z,99636.60
2023-03-06T11:04:35.318Z,99633.70
2023-03-06T11:07:18.077Z,99632.05
2023-03-06T11:09:59.138Z,99633.45
2023-03-06T11:12:34.967Z,99634.20
2023-03-06T11:15:06.685Z,99629.95
2023-03-06T11:17:50.464Z,99625.33
2023-03-06T11:20:21.607Z,99626.89
2023-03-06T11:23:04.921Z,99622.92
2023-03-06T11:25:43.848Z,99623.27
2023-03-06T11:28:37.618Z,99619.58
2023-03-06T11:31:18.081Z,99615.98
2023-03-06T11:33:54.044Z,99613.05
2023-03-06T11:36:53.505Z,99614.05
2023-03-06T11:39:34.253Z,99616.45
2023-03-06T11:42:17.151Z,99612.31
2023-03-06T11:45:05.064Z,99610.74
2023-03-06T11:47:42.340Z,99611.35
2023-03-06T11:50:48.852Z,99609.60
2023-03-06T11:53:21.530Z,99613.55
2023-03-06T11:55:56.493Z,99610.80
2023-03-06T11:58:31.723Z,99607.96
2023-03-06T12:01:21.197Z,99608.45
2023-03-06T12:04:02.738Z,99605.34
2023-03-06T12:06:58.373Z,99607.40
2023-03-06T12:09:55.076Z,99607.65
2023-03-06T12:12:50.674Z,99610.29
2023-03-06T12:15:30.786Z,99607.33
2023-03-06T12:18:12.056Z,99605.94
2023-03-06T12:20:57.215Z,99609.96
2023-03-06T12:23:35.990Z,99609.66
2023-03-06T12:26:30.949Z,99608.93
2023-03-06T12:29:10.773Z,99608.30
2023-03-06T12:31:42.400Z,99607.70
2023-03-06T12:34:14.010Z,99605.60
2023-03-06T12:37:25.161Z,99605.33
2023-03-06T12:40:01.182Z,99605.69
2023-03-06T12:42:55.961Z,99607.42
2023-03-06T12:45:32.588Z,99607.15
2023-03-06T12:48:02.162Z,99607.15
2023-03-06T12:50:37.097Z,99608.53
2023-03-06T12:53:12.545Z,99605.72
2023-03-06T12:55:47.247Z,99606.00
2023-03-06T12:58:28.669Z,99607.23
2023-03-06T13:01:13.621Z,99607.42
2023-03-06T13:04:24.016Z,99604.71
2023-03-06T13:07:17.370Z,99606.63
2023-03-06T13:10:01.723Z,99605.85
2023-03-06T13:12:58.515Z,99604.14
2023-03-06T13:15:38.122Z,99600.39
2023-03-06T13:18:22.588Z,99599.52
2023-03-06T13:20:53.919Z,99599.23
2023-03-06T13:23:39.111Z,99599.70
2023-03-06T13:26:26.731Z,99597.83
2023-03-06T13:28:57.942Z,99600.09
2023-03-06T13:31:36.661Z,99597.53
2023-03-06T13:34:31.286Z,99596.95
2023-03-06T13:37:19.479Z,99595.63
2023-03-06T13:39:58.626Z,99595.94
2023-03-06T13:42:38.191Z,99595.71
2023-03-06T13:45:23.972Z,99594.81
2023-03-06T13:50:46.603Z,99591.97
2023-03-06T13:53:26.097Z,99587.99
2023-03-06T13:56:50.821Z,99586.30
2023-03-06T13:59:37.921Z,99583.63
2023-03-06T14:02:53.720Z,99585.83
2023-03-06T14:05:23.685Z,99589.64
2023-03-06T14:08:10.762Z,99586.08
2023-03-06T14:10:40.349Z,99587.02
2023-03-06T14:13:19.879Z,99589.59
2023-03-06T14:15:54.221Z,99585.27
2023-03-06T14:18:28.057Z,99585.48
2023-03-06T14:21:02.304Z,99579.70
2023-03-06T14:23:35.793Z,99578.02
2023-03-06T14:26:07.541Z,99585.43
2023-03-06T14:28:36.827Z,99585.70
2023-03-06T14:31:07.030Z,99589.57
2023-03-06T14:33:56.637Z,99588.04
2023-03-06T14:36:34.746Z,99589.73
2023-03-06T14:39:12.641Z,99587.14
2023-03-06T14:41:41.722Z,99583.41
2023-03-06T14:44:20.175Z,99585.67
2023-03-06T14:46:50.488Z,99588.48
2023-03-06T14:49:21.432Z,99591.73
2023-03-06T14:51:55.914Z,99587.58
2023-03-06T14:54:29.583Z,99584.39
2023-03-06T14:57:06.089Z,99581.56
2023-03-06T14:59:50.577Z,99584.92
2023-03-06T15:02:26.692Z,99590.84
2023-03-06T15:05:03.502Z,99592.14
2023-03-06T15:07:33.547Z,99593.92
2023-03-06T15:10:02.544Z,99593.23
2023-03-06T15:12:35.117Z,99591.84
2023-03-06T15:15:06.869Z,99590.98
2023-03-06T15:17:44.133Z,99592.21
2023-03-06T15:20:38.209Z,99590.69
2023-03-06T15:23:20.885Z,99591.09
2023-03-06T15:26:14.163Z,99593.91
2023-03-06T15:28:43.117Z,99593.52
2023-03-06T15:31:28.182Z,99593.36
2023-03-06T15:34:02.434Z,99591.02
2023-03-06T15:36:34.409Z,99594.07
2023-03-06T15:39:35.209Z,99594.66
2023-03-06T15:42:23.465Z,99595.36
2023-03-06T15:45:00.275Z,99595.72
2023-03-06T15:47:29.148Z,99596.66
2023-03-06T15:49:58.005Z,99596.60
2023-03-06T15:52:27.009Z,99599.41
2023-03-06T15:54:55.952Z,99597.43
2023-03-06T15:57:29.463Z,99597.66
2023-03-06T16:00:00.651Z,99596.69
2023-03-06T16:02:29.565Z,99598.09
2023-03-06T16:05:02.489Z,99603.08
2023-03-06T16:07:31.434Z,99598.58
2023-03-06T16:10:00.293Z,99600.73
2023-03-06T16:12:30.689Z,99597.83
2023-03-06T16:15:01.688Z,99596.54
2023-03-06T16:17:30.637Z,99595.05
2023-03-06T16:19:59.498Z,99599.59
2023-03-06T16:22:28.430Z,99598.68
2023-03-06T16:24:57.364Z,99599.15
2023-03-06T16:27:26.289Z,99597.59
2023-03-06T16:29:55.228Z,99599.90
2023-03-06T16:32:28.352Z,99595.31
2023-03-06T16:34:57.674Z,99595.94
2023-03-06T16:37:26.553Z,99594.30
2023-03-06T16:39:55.444Z,99594.40
2023-03-06T16:42:24.345Z,99595.55
2023-03-06T16:44:53.350Z,99596.42
2023-03-06T16:47:22.262Z,99595.64
2023-03-06T16:50:01.974Z,99595.29
2023-03-06T16:52:31.135Z,99599.45
2023-03-06T16:55:00.128Z,99599.74
2023-03-06T16:57:35.671Z,99598.84
2023-03-06T17:00:20.835Z,99599.32
2023-03-06T17:03:08.217Z,99603.21
2023-03-06T17:05:45.429Z,99612.43
2023-03-06T17:08:14.350Z,99618.41
2023-03-06T17:10:43.299Z,99618.23
2023-03-06T17:13:12.614Z,99616.45
2023-03-06T17:15:41.956Z,99613.94
2023-03-06T17:18:11.117Z,99615.67
2023-03-06T17:20:40.927Z,99616.27
2023-03-06T17:23:10.232Z,99616.98
2023-03-06T17:25:39.087Z,99621.04
2023-03-06T17:28:08.222Z,99623.13
2023-03-06T17:30:37.191Z,99626.54
2023-03-06T17:33:06.318Z,99627.15
2023-03-06T17:35:36.602Z,99630.45
2023-03-06T17:38:05.546Z,99633.63
2023-03-06T17:40:34.742Z,99640.09
2023-03-06T17:43:03.995Z,99634.73
2023-03-06T17:45:36.338Z,99631.81
2023-03-06T17:48:05.332Z,99630.56
2023-03-06T17:50:34.246Z,99639.70
2023-03-06T17:53:03.212Z,99640.00
2023-03-06T17:55:32.114Z,99643.36
2023-03-06T17:58:01.128Z,99639.59
2023-03-06T18:00:30.026Z,99638.55
2023-03-06T18:02:58.951Z,99632.36
2023-03-06T18:05:27.831Z,99632.59
2023-03-06T18:07:56.828Z,99635.64
2023-03-06T18:10:25.826Z,99638.26
2023-03-06T18:12:56.755Z,99641.08
2023-03-06T18:15:25.919Z,99633.34
2023-03-06T18:17:56.796Z,99629.96
2023-03-06T18:20:26.166Z,99633.41
2023-03-06T18:22:55.125Z,99634.56
2023-03-06T18:25:24.076Z,99636.25
2023-03-06T18:27:52.972Z,99635.98
2023-03-06T18:30:21.961Z,99633.54
2023-03-06T18:32:50.859Z,99633.10
2023-03-06T18:35:19.926Z,99631.65
2023-03-06T18:37:49.044Z,99629.54
2023-03-06T18:40:18.273Z,99629.29
2023-03-06T18:42:48.192Z,99632.17
2023-03-06T18:45:17.076Z,99636.87
2023-03-06T18:47:46.426Z,99637.81
2023-03-06T18:50:17.690Z,99642.60
2023-03-06T18:52:46.815Z,99638.63
2023-03-06T18:55:15.921Z,99639.88
2023-03-06T18:57:44.792Z,99637.11
2023-03-06T19:00:14.084Z,99641.62
2023-03-06T19:02:42.967Z,99642.16
2023-03-06T19:05:12.266Z,99640.63
2023-03-06T19:07:41.172Z,99644.91
2023-03-06T19:10:10.884Z,99642.84
2023-03-06T19:12:39.906Z,99644.70
2023-03-06T19:15:09.273Z,99642.71
2023-03-06T19:17:38.272Z,99642.50
2023-03-06T19:20:07.948Z,99645.14
2023-03-06T19:22:37.290Z,99649.20
2023-03-06T19:25:07.906Z,99652.35
2023-03-06T19:27:38.485Z,99652.11
2023-03-06T19:30:08.558Z,99652.70
2023-03-06T19:32:37.841Z,99650.01
2023-03-06T19:35:07.033Z,99657.98
2023-03-06T19:37:36.612Z,99657.50
2023-03-06T19:40:06.610Z,99657.98
2023-03-06T19:42:36.109Z,99659.02
2023-03-06T19:45:06.629Z,99661.30
2023-03-06T19:47:36.063Z,99657.14
2023-03-06T19:50:05.378Z,99659.11
2023-03-06T19:52:37.137Z,99660.30
2023-03-06T19:55:06.889Z,99663.99
2023-03-06T19:57:36.051Z,99664.30
2023-03-06T20:00:05.744Z,99662.95
2023-03-06T20:02:35.806Z,99661.88
2023-03-06T20:05:15.784Z,99663.59
2023-03-06T20:08:01.324Z,99661.91
2023-03-06T20:10:30.245Z,99666.86
2023-03-06T20:12:59.144Z,99666.69
2023-03-06T20:15:29.009Z,99667.60
2023-03-06T20:17:57.964Z,99668.90
2023-03-06T20:20:27.001Z,99667.83
2023-03-06T20:22:56.179Z,99662.20
2023-03-06T20:25:32.533Z,99666.40
2023-03-06T20:28:07.814Z,99661.56
2023-03-06T20:30:45.996Z,99661.68
2023-03-06T20:33:15.515Z,99664.23
2023-03-06T20:35:44.791Z,99666.86
2023-03-06T20:38:13.993Z,99666.17
2023-03-06T20:40:43.234Z,99666.20
2023-03-06T20:43:12.173Z,99666.41
2023-03-06T20:45:41.123Z,99668.48
2023-03-06T20:48:10.054Z,99669.30
2023-03-06T20:50:38.956Z,99672.19
2023-03-06T20:53:08.007Z,99669.00
2023-03-06T20:55:37.729Z,99668.98
2023-03-06T20:58:06.626Z,99667.23
2023-03-06T21:00:41.544Z,99672.45
2023-03-06T21:03:10.412Z,99671.07
2023-03-06T21:05:39.282Z,99670.32
2023-03-06T21:08:08.185Z,99669.14
2023-03-06T21:10:38.035Z,99671.83
2023-03-06T21:13:06.977Z,99664.73
2023-03-06T21:15:42.227Z,99665.45
2023-03-06T21:18:11.331Z,99665.88
2023-03-06T21:20:41.205Z,99666.30
2023-03-06T21:23:10.356Z,99667.70
2023-03-06T21:25:50.606Z,99667.84
2023-03-06T21:28:19.746Z,99665.42
2023-03-06T21:30:48.655Z,99665.14
2023-03-06T21:33:17.521Z,99667.58
2023-03-06T21:35:47.470Z,99663.87
2023-03-06T21:38:16.794Z,99661.68
2023-03-06T21:40:46.067Z,99660.80
2023-03-06T21:43:17.585Z,99660.23
2023-03-06T21:45:48.041Z,99660.00
2023-03-06T21:48:16.986Z,99662.05
2023-03-06T21:50:45.944Z,99660.60
2023-03-06T21:53:14.799Z,99659.13
2023-03-06T21:55:43.965Z,99656.80
2023-03-06T21:58:12.824Z,99660.39
2023-03-06T22:00:41.787Z,99661.42
2023-03-06T22:03:10.784Z,99661.48
2023-03-06T22:05:39.856Z,99663.83
2023-03-06T22:08:08.824Z,99662.29
2023-03-06T22:10:41.563Z,99659.48
2023-03-06T22:13:10.712Z,99657.85
2023-03-06T22:15:39.622Z,99654.38
2023-03-06T22:18:15.778Z,99650.95
2023-03-06T22:20:45.290Z,99647.97
2023-03-06T22:23:14.546Z,99647.90
2023-03-06T22:25:43.491Z,99646.48
2023-03-06T22:28:13.293Z,99645.38
2023-03-06T22:30:42.166Z,99647.82
2023-03-06T22:33:11.118Z,99645.19
2023-03-06T22:35:40.181Z,99647.27
2023-03-06T22:38:09.377Z,99648.06
2023-03-06T22:40:38.289Z,99645.36
2023-03-06T22:43:07.133Z,99644.16
2023-03-06T22:45:36.135Z,99644.14
2023-03-06T22:48:11.142Z,99640.23
2023-03-06T22:50:40.300Z,99640.05
2023-03-06T22:53:09.142Z,99635.42
2023-03-06T22:55:38.089Z,99635.50
2023-03-06T22:58:07.098Z,99638.89
2023-03-06T23:00:36.089Z,99634.70
2023-03-06T23:03:05.145Z,99632.15
2023-03-06T23:05:34.016Z,99630.11
2023-03-06T23:08:02.908Z,99629.14
2023-03-06T23:10:31.776Z,99628.73
2023-03-06T23:13:00.659Z,99625.52
2023-03-06T23:15:29.685Z,99623.71
2023-03-06T23:17:58.632Z,99623.44
2023-03-06T23:20:27.518Z,99625.76
2023-03-06T23:22:56.409Z,99620.98
2023-03-06T23:25:25.315Z,99622.20
2023-03-06T23:27:55.783Z,99622.62
2023-03-06T23:30:24.694Z,99618.13
2023-03-06T23:32:53.652Z,99617.85
2023-03-06T23:35:22.619Z,99616.48
2023-03-06T23:37:51.779Z,99616.21
2023-03-06T23:40:20.683Z,99616.64
2023-03-06T23:42:49.562Z,99612.73
2023-03-06T23:45:18.467Z,99607.47
2023-03-06T23:47:47.580Z,99611.87
2023-03-06T23:50:16.844Z,99614.09
2023-03-06T23:52:45.885Z,99615.51
2023-03-06T23:55:14.834Z,99615.52
2023-03-06T23:57:43.733Z,99613.73
